^^

Nearby METAR Reports

 

EGNV - Tees-Side, United Kingdom
Distance from station: SW 7mi, 11km
Updated: 03/04/2020 17:50
NOT Current
Few Clouds
Few Clouds
 Wind from WSW
Wind: WSW 14 mph , 22 km/h
Temperature: 9°C
Wind Chill: 6°C
Dew Point: 3°C
Humidity: 66%
Barometer: 1015 hPa
Clouds: Few Clouds
Visibility: 6 miles , 10 km
Cloud details: Few Clouds 853 m
2020/04/03 16:50 EGNV 031650Z 25012KT 9999 FEW028 09/03 Q1015
EGXE - Leeming Raf, United Kingdom
Distance from station: SSW 23mi, 37km
Updated: 04/04/2020 10:50
Mostly cloudy
Mostly cloudy
 Wind from SSW
Wind: SSW 13 mph , 20 km/h
Temperature: 11°C
Dew Point: 5°C
Humidity: 67%
Barometer: 1018 hPa
Clouds: Mostly cloudy
Visibility: 6 miles , 10 km
Cloud details: Few Clouds 823 m
Mostly cloudy 1829 m
2020/04/04 09:50 EGXE 040950Z AUTO 20011KT 9999 FEW027/// BKN060/// 11/05 Q1018
 
EGXZ - Topcliffe Raf, United Kingdom
Distance from station: S 27mi, 43km
Updated: 04/04/2020 11:50
Overcast
Overcast
 Wind from S
Wind: S 12 mph , 19 km/h
Temperature: 11°C
Dew Point: 6°C
Humidity: 72%
Barometer: 1018 hPa
Clouds: Overcast
Visibility: 6 miles , 10 km
Cloud details: Overcast 1524 m
2020/04/04 10:50 EGXZ 041050Z AUTO 18010KT 9999 OVC050/// 11/06 Q1018
EGNT - Newcastle, United Kingdom
Distance from station: NNW 34mi, 54km
Updated: 04/04/2020 11:50
Overcast
Overcast
 Wind from SW
Wind: SW 12 mph , 19 km/h
Temperature: 10°C
Wind Chill: 7°C
Dew Point: 3°C
Humidity: 62%
Barometer: 1017 hPa
Clouds: Overcast
Visibility: 6 miles , 10 km
Cloud details: Overcast 1494 m
2020/04/04 10:50 EGNT 041050Z AUTO 23010KT 200V270 9999 OVC049/// 10/03 Q1017
 
EGXU - Linton-On-Ouse R, United Kingdom
Distance from station: S 37mi, 60km
Updated: 04/04/2020 10:50
Mostly cloudy
Mostly cloudy
 Wind from S
Wind: S 10 mph , 17 km/h
Temperature: 10°C
Wind Chill: 8°C
Dew Point: 4°C
Humidity: 67%
Barometer: 1018 hPa
Clouds: Mostly cloudy
Visibility: 6 miles , 10 km
Cloud details: Few Clouds 1463 m
Mostly cloudy 1829 m
2020/04/04 09:50 EGXU 040950Z AUTO 19009KT 9999 FEW048/// BKN060/// 10/04 Q1018
EGNM - Leeds And Bradfo, United Kingdom
Distance from station: SSW 52mi, 83km
Updated: 04/04/2020 11:50
Partly cloudy
Partly cloudy
 Wind from S
Wind: S 9 mph , 15 km/h
Temperature: 9°C
Wind Chill: 7°C
Dew Point: 4°C
Humidity: 71%
Barometer: 1018 hPa
Clouds: Partly cloudy
Visibility: 6 miles , 10 km
Cloud details: Few Clouds 610 m
Partly cloudy 1372 m
2020/04/04 10:50 EGNM 041050Z 19008KT 160V220 9999 FEW020 SCT045 09/04 Q1018
 
EGOM - Spadeadam, United Kingdom
Distance from station: WNW 58mi, 94km
Updated: 04/04/2020 10:50
Partly cloudy
Partly cloudy
 Wind from SW
Wind: SW 10 mph , 17 km/h
Temperature: 7°C
Wind Chill: 4°C
Dew Point: 5°C
Humidity: 87%
Barometer: 1015 hPa
Clouds: Partly cloudy
Visibility: 6 miles , 10 km
Cloud details: Mostly cloudy 427 m
Partly cloudy 823 m
2020/04/04 09:50 EGOM 040950Z AUTO 23009KT 9999 BKN014/// SCT027/// 07/05 Q1015
EGCN - Doncaster Sheffi, United Kingdom
Distance from station: S 77mi, 124km
Updated: 04/04/2020 11:50
Partly cloudy
Partly cloudy
 Wind from SSW
Wind: SSW 16 mph , 26 km/h
Temperature: 12°C
Dew Point: 6°C
Humidity: 67%
Barometer: 1020 hPa
Clouds: Partly cloudy
Visibility: 6 miles , 10 km
Cloud details: Partly cloudy 853 m
2020/04/04 10:50 EGCN 041050Z 21014KT 9999 SCT028 12/06 Q1020
 
EGNJ - Humberside, United Kingdom
Distance from station: SSE 80mi, 129km
Updated: 04/04/2020 11:50
Partly cloudy
Partly cloudy
 Wind from SSW
Wind: SSW 15 mph , 24 km/h
Temperature: 13°C
Dew Point: 6°C
Humidity: 63%
Barometer: 1019 hPa
Clouds: Partly cloudy
Visibility: 6 miles , 10 km
Cloud details: Partly cloudy 853 m
2020/04/04 10:50 EGNJ 041050Z 20013KT 9999 SCT028 13/06 Q1019
EGNH - Blackpool Airpor, United Kingdom
Distance from station: SW 90mi, 145km
Updated: 04/04/2020 11:50
Mostly cloudy
Mostly cloudy
 Wind from SW
Wind: SW 12 mph , 19 km/h
Temperature: 10°C
Wind Chill: 7°C
Dew Point: 6°C
Humidity: 76%
Barometer: 1018 hPa
Clouds: Mostly cloudy
Visibility: 6 miles , 10 km
Cloud details: Few Clouds 549 m
Mostly cloudy 1463 m
2020/04/04 10:50 EGNH 041050Z 22010KT 9999 FEW018 BKN048 10/06 Q1018
 
EGXP - Scampton Raf, United Kingdom
Distance from station: SSE 94mi, 151km
Updated: 04/04/2020 10:50
Partly cloudy
Partly cloudy
 Wind from SSW
Wind: SSW 12 mph , 19 km/h
Temperature: 12°C
Dew Point: 6°C
Humidity: 67%
Barometer: 1019 hPa
Clouds: Partly cloudy
Visibility: 6 miles , 10 km
Cloud details: Partly cloudy 853 m
2020/04/04 09:50 EGXP 040950Z AUTO 20010KT 9999 // SCT028/// 12/06 Q1019
EGCC - Manchester Intl, United Kingdom
Distance from station: SSW 94mi, 152km
Updated: 04/04/2020 11:50
Clear
Clear
 Wind from S
Wind: S 6 mph , 9 km/h
Temperature: 10°C
Wind Chill: 9°C
Dew Point: 5°C
Humidity: 71%
Barometer: 1018 hPa
Clouds: Clear
Visibility: 6 miles , 10 km
2020/04/04 10:50 EGCC 041050Z AUTO 18005KT 070V220 9999 NCD 10/05 Q1018